Time;durP1;ratioP1;P1;durP2;ratioP2;P2;SDS_P1;SDS_P2;PMS_P1;PMS_P2;Temp;Humidity;BMP_temperature;BMP_pressure;BME280_temperature;BME280_humidity;BME280_pressure;Samples;Min_cycle;Max_cycle;Signal;HPM_P1;HPM_P2
2023/09/05 00:01:50;;;;;;;4.72;2.65;;;;;;;;;;5053766;28;20083;-72
2023/09/05 00:04:23;;;;;;;4.28;2.75;;;;;;;;;;5036707;28;20115;-74
2023/09/05 00:06:53;;;;;;;5.95;3.35;;;;;;;;;;5036846;28;20396;-74
2023/09/05 00:09:26;;;;;;;6.82;3.00;;;;;;;;;;5036356;28;20033;-75
2023/09/05 00:11:58;;;;;;;5.28;3.30;;;;;;;;;;5036808;28;20032;-74
2023/09/05 00:14:49;;;;;;;4.40;3.08;;;;;;;;;;5054068;28;20059;-73
2023/09/05 00:17:33;;;;;;;6.53;3.05;;;;;;;;;;4985259;28;20068;-73
2023/09/05 00:19:59;;;;;;;8.57;3.45;;;;;;;;;;5053632;28;20036;-72
2023/09/05 00:22:26;;;;;;;4.13;2.40;;;;;;;;;;5036936;28;20028;-73
2023/09/05 00:24:52;;;;;;;6.00;3.08;;;;;;;;;;5054754;28;20088;-74
2023/09/05 00:27:34;;;;;;;6.47;3.00;;;;;;;;;;5037607;28;20053;-73
2023/09/05 00:30:12;;;;;;;5.40;3.20;;;;;;;;;;5055839;28;20033;-73
2023/09/05 00:32:54;;;;;;;4.78;3.28;;;;;;;;;;5058700;28;20028;-74
2023/09/05 00:35:31;;;;;;;5.22;3.17;;;;;;;;;;5041183;28;20037;-73
2023/09/05 00:38:01;;;;;;;5.40;3.65;;;;;;;;;;5057320;28;20039;-74
2023/09/05 00:40:33;;;;;;;4.38;3.30;;;;;;;;;;4995525;28;20076;-74
2023/09/05 00:42:59;;;;;;;4.82;3.30;;;;;;;;;;4995192;28;20075;-73
2023/09/05 00:45:29;;;;;;;4.97;3.47;;;;;;;;;;5011451;28;20038;-73
2023/09/05 00:48:07;;;;;;;7.45;3.20;;;;;;;;;;4979246;28;20085;-73
2023/09/05 00:50:33;;;;;;;5.00;3.50;;;;;;;;;;4994123;28;20030;-74
2023/09/05 00:53:08;;;;;;;5.25;3.47;;;;;;;;;;4994361;28;20479;-74
2023/09/05 00:55:34;;;;;;;8.38;3.55;;;;;;;;;;4994783;28;20045;-75
2023/09/05 00:58:24;;;;;;;6.65;2.97;;;;;;;;;;5011166;28;20037;-73
2023/09/05 01:00:52;;;;;;;14.82;3.80;;;;;;;;;;4994519;28;20048;-74
2023/09/05 01:03:24;;;;;;;5.22;3.45;;;;;;;;;;4999050;28;20030;-73
2023/09/05 01:05:57;;;;;;;5.80;3.05;;;;;;;;;;4999053;28;20065;-73
2023/09/05 01:08:38;;;;;;;4.78;3.50;;;;;;;;;;4998180;28;20130;-74
2023/09/05 01:11:08;;;;;;;6.97;3.67;;;;;;;;;;5013150;28;20040;-73
2023/09/05 01:13:42;;;;;;;5.38;2.80;;;;;;;;;;5057166;28;20489;-74
2023/09/05 01:16:08;;;;;;;4.32;3.20;;;;;;;;;;5038880;28;20166;-74
2023/09/05 01:18:40;;;;;;;6.45;3.72;;;;;;;;;;5038938;28;20021;-73
2023/09/05 01:21:39;;;;;;;4.57;3.13;;;;;;;;;;5056415;28;20083;-75
2023/09/05 01:24:20;;;;;;;4.85;3.15;;;;;;;;;;5057177;28;20047;-73
2023/09/05 01:26:51;;;;;;;5.05;3.13;;;;;;;;;;5057348;28;20028;-73
2023/09/05 01:29:26;;;;;;;6.45;3.35;;;;;;;;;;5056111;28;20056;-72
2023/09/05 01:31:54;;;;;;;6.05;3.05;;;;;;;;;;5056751;28;20025;-73
2023/09/05 01:34:28;;;;;;;6.90;3.25;;;;;;;;;;5038372;28;20039;-73
2023/09/05 01:36:56;;;;;;;7.53;3.22;;;;;;;;;;5034857;28;20600;-74
2023/09/05 01:39:34;;;;;;;3.90;3.17;;;;;;;;;;5019834;28;20256;-74
2023/09/05 01:42:03;;;;;;;3.72;2.72;;;;;;;;;;5018587;28;20035;-73
2023/09/05 01:44:36;;;;;;;5.15;3.38;;;;;;;;;;5018082;28;20036;-73
2023/09/05 01:47:05;;;;;;;4.82;3.17;;;;;;;;;;5035283;28;20108;-74
2023/09/05 01:49:31;;;;;;;9.10;4.03;;;;;;;;;;5018238;28;20088;-73
2023/09/05 01:52:07;;;;;;;4.72;3.35;;;;;;;;;;5018114;28;20026;-73
2023/09/05 01:54:40;;;;;;;7.35;3.53;;;;;;;;;;5035944;28;20021;-75
2023/09/05 01:57:10;;;;;;;4.80;2.80;;;;;;;;;;5035360;28;20057;-73
2023/09/05 01:59:40;;;;;;;9.15;4.45;;;;;;;;;;5035897;28;20049;-74
2023/09/05 02:02:06;;;;;;;7.35;3.70;;;;;;;;;;5018280;28;20029;-73
2023/09/05 02:04:34;;;;;;;6.18;3.75;;;;;;;;;;5018301;28;20029;-74
2023/09/05 02:07:00;;;;;;;4.63;3.38;;;;;;;;;;5034190;28;20037;-72
2023/09/05 02:09:26;;;;;;;6.53;3.10;;;;;;;;;;5018812;28;20498;-73
2023/09/05 02:11:52;;;;;;;5.18;3.42;;;;;;;;;;5018280;28;20485;-74
2023/09/05 02:14:23;;;;;;;9.45;3.78;;;;;;;;;;5017005;28;20470;-73
2023/09/05 02:17:16;;;;;;;5.13;3.55;;;;;;;;;;5018893;28;20036;-74
2023/09/05 02:19:43;;;;;;;8.68;3.80;;;;;;;;;;5036426;28;20025;-73
2023/09/05 02:22:13;;;;;;;7.35;3.65;;;;;;;;;;5036790;28;20029;-74
2023/09/05 02:24:41;;;;;;;5.93;3.90;;;;;;;;;;5036839;28;20048;-74
2023/09/05 02:27:18;;;;;;;7.00;3.67;;;;;;;;;;5036786;28;20036;-73
2023/09/05 02:29:49;;;;;;;4.75;3.78;;;;;;;;;;5035699;28;20030;-73
2023/09/05 02:32:19;;;;;;;5.65;3.70;;;;;;;;;;5018203;28;20108;-73
2023/09/05 02:34:50;;;;;;;8.68;4.25;;;;;;;;;;5036250;28;20028;-74
2023/09/05 02:37:17;;;;;;;5.28;3.83;;;;;;;;;;5018034;28;20059;-74
2023/09/05 02:39:44;;;;;;;6.80;4.03;;;;;;;;;;5017855;28;20120;-73
2023/09/05 02:42:10;;;;;;;7.10;4.10;;;;;;;;;;5015982;28;20087;-75
2023/09/05 02:44:37;;;;;;;8.32;5.63;;;;;;;;;;5017715;28;20028;-73
2023/09/05 02:47:03;;;;;;;6.50;3.88;;;;;;;;;;5035331;28;20057;-74
2023/09/05 02:49:31;;;;;;;9.98;3.60;;;;;;;;;;5017894;28;20033;-73
2023/09/05 02:51:58;;;;;;;8.40;3.83;;;;;;;;;;5035785;28;20048;-74
2023/09/05 02:54:29;;;;;;;7.72;4.20;;;;;;;;;;5018576;28;20041;-73
2023/09/05 02:56:55;;;;;;;6.43;3.65;;;;;;;;;;5017501;28;20087;-73
2023/09/05 02:59:32;;;;;;;8.98;3.97;;;;;;;;;;5017643;28;20033;-73
2023/09/05 03:02:26;;;;;;;;;;;;;;;;;;;;;
2023/09/05 03:04:58;;;;;;;8.90;4.60;;;;;;;;;;5035512;28;20029;-75
2023/09/05 03:07:25;;;;;;;8.70;3.60;;;;;;;;;;5000790;28;20100;-74
2023/09/05 03:09:52;;;;;;;5.43;3.47;;;;;;;;;;5016149;28;20525;-74
2023/09/05 03:12:19;;;;;;;17.80;8.60;;;;;;;;;;5034611;28;20095;-73
2023/09/05 03:14:45;;;;;;;9.38;4.63;;;;;;;;;;5016352;28;20029;-73
2023/09/05 03:17:12;;;;;;;10.88;4.88;;;;;;;;;;5016406;28;20293;-73
2023/09/05 03:19:41;;;;;;;9.38;5.50;;;;;;;;;;5015320;28;20470;-74
2023/09/05 03:22:08;;;;;;;19.13;6.90;;;;;;;;;;5016481;28;20029;-74
2023/09/05 03:24:47;;;;;;;12.15;6.38;;;;;;;;;;5034138;28;20044;-74
2023/09/05 03:27:15;;;;;;;11.95;6.00;;;;;;;;;;5017091;28;20448;-74
2023/09/05 03:30:01;;;;;;;9.88;5.20;;;;;;;;;;5034312;28;20063;-73
2023/09/05 03:32:34;;;;;;;17.98;7.82;;;;;;;;;;5017098;28;20067;-74
2023/09/05 03:35:23;;;;;;;17.55;7.47;;;;;;;;;;5029963;28;20033;-73
2023/09/05 03:37:50;;;;;;;10.48;6.18;;;;;;;;;;4937412;29;20035;-75
2023/09/05 03:40:16;;;;;;;10.35;5.90;;;;;;;;;;5008145;28;20577;-74
2023/09/05 03:42:58;;;;;;;19.67;8.00;;;;;;;;;;5034104;28;20030;-74
2023/09/05 03:45:26;;;;;;;18.25;8.40;;;;;;;;;;5016083;28;20120;-73
2023/09/05 03:47:52;;;;;;;8.50;4.82;;;;;;;;;;5015635;28;20638;-73
2023/09/05 03:50:20;;;;;;;8.60;3.80;;;;;;;;;;5016301;28;20071;-73
2023/09/05 03:52:46;;;;;;;7.82;4.50;;;;;;;;;;5015879;28;20030;-74
2023/09/05 03:55:13;;;;;;;8.32;4.40;;;;;;;;;;5015955;28;20049;-73
2023/09/05 03:57:47;;;;;;;8.25;5.82;;;;;;;;;;5016406;28;20512;-73
2023/09/05 04:00:17;;;;;;;8.30;4.70;;;;;;;;;;5016380;28;20025;-72
2023/09/05 04:02:44;;;;;;;12.25;5.60;;;;;;;;;;5015889;28;20033;-73
2023/09/05 04:05:13;;;;;;;7.07;4.53;;;;;;;;;;5016087;28;20084;-73
2023/09/05 04:07:51;;;;;;;7.72;4.78;;;;;;;;;;5034110;28;20021;-73
2023/09/05 04:10:20;;;;;;;8.75;4.25;;;;;;;;;;5013400;28;20128;-73
2023/09/05 04:12:49;;;;;;;18.70;4.72;;;;;;;;;;5016160;28;20025;-74
2023/09/05 04:15:20;;;;;;;12.23;7.07;;;;;;;;;;5015642;28;20061;-73
2023/09/05 04:17:47;;;;;;;9.90;4.18;;;;;;;;;;5016114;28;20033;-74
2023/09/05 04:20:20;;;;;;;8.80;5.00;;;;;;;;;;5000098;28;20065;-73
2023/09/05 04:22:47;;;;;;;8.75;4.38;;;;;;;;;;5043852;28;20036;-72
2023/09/05 04:25:14;;;;;;;9.50;4.18;;;;;;;;;;5032724;28;20032;-74
2023/09/05 04:27:40;;;;;;;8.05;4.70;;;;;;;;;;5030177;28;20095;-73
2023/09/05 04:30:12;;;;;;;5.28;3.65;;;;;;;;;;5034319;28;20063;-74
2023/09/05 04:32:42;;;;;;;13.00;5.82;;;;;;;;;;5015435;28;20040;-75
2023/09/05 04:35:09;;;;;;;5.55;3.97;;;;;;;;;;5038588;28;20115;-72
2023/09/05 04:37:38;;;;;;;13.65;4.68;;;;;;;;;;5039525;28;20029;-73
2023/09/05 04:40:08;;;;;;;8.95;3.83;;;;;;;;;;5038560;28;20243;-75
2023/09/05 04:42:35;;;;;;;12.00;3.95;;;;;;;;;;5061913;28;20025;-75
2023/09/05 04:45:06;;;;;;;9.27;4.25;;;;;;;;;;5035360;28;20045;-73
2023/09/05 04:47:38;;;;;;;6.20;4.10;;;;;;;;;;5035412;28;20439;-73
2023/09/05 04:50:05;;;;;;;5.55;3.45;;;;;;;;;;5050124;28;20061;-75
2023/09/05 04:52:31;;;;;;;7.72;5.03;;;;;;;;;;5038562;28;20615;-73
2023/09/05 04:54:59;;;;;;;6.03;3.65;;;;;;;;;;5049501;28;20025;-75
2023/09/05 04:57:29;;;;;;;6.13;4.18;;;;;;;;;;5039474;28;20028;-77
2023/09/05 05:00:01;;;;;;;7.63;4.20;;;;;;;;;;5028791;28;20033;-75
2023/09/05 05:02:28;;;;;;;8.98;4.57;;;;;;;;;;5034716;28;20033;-73
2023/09/05 05:04:55;;;;;;;5.68;4.35;;;;;;;;;;5018266;28;20029;-74
2023/09/05 05:07:22;;;;;;;6.13;4.32;;;;;;;;;;5019315;28;20049;-72
2023/09/05 05:09:49;;;;;;;8.00;4.25;;;;;;;;;;5035461;28;20040;-75
2023/09/05 05:12:24;;;;;;;12.70;4.93;;;;;;;;;;5038692;28;20025;-73
2023/09/05 05:14:50;;;;;;;13.60;4.38;;;;;;;;;;5050258;28;20100;-74
2023/09/05 05:17:23;;;;;;;14.10;4.85;;;;;;;;;;5035460;28;20091;-73
2023/09/05 05:19:52;;;;;;;8.18;4.28;;;;;;;;;;5043709;28;20026;-73
2023/09/05 05:22:18;;;;;;;11.25;4.85;;;;;;;;;;5023951;28;20039;-74
2023/09/05 05:24:53;;;;;;;10.98;5.82;;;;;;;;;;5035347;28;20028;-74
2023/09/05 05:27:20;;;;;;;11.75;5.47;;;;;;;;;;5033954;28;20031;-75
2023/09/05 05:29:53;;;;;;;7.50;4.82;;;;;;;;;;5052217;28;20033;-74
2023/09/05 05:32:19;;;;;;;8.38;4.78;;;;;;;;;;5017014;28;20033;-75
2023/09/05 05:34:50;;;;;;;5.40;4.18;;;;;;;;;;5047737;28;20040;-73
2023/09/05 05:37:21;;;;;;;9.68;5.07;;;;;;;;;;5019881;28;20037;-74
2023/09/05 05:39:49;;;;;;;10.70;4.60;;;;;;;;;;5024637;28;20087;-74
2023/09/05 05:42:18;;;;;;;6.00;4.32;;;;;;;;;;5031967;28;20025;-73
2023/09/05 05:44:45;;;;;;;8.68;5.70;;;;;;;;;;5029005;28;20025;-76
2023/09/05 05:47:11;;;;;;;9.95;5.05;;;;;;;;;;5033618;28;20113;-73
2023/09/05 05:49:54;;;;;;;;;;;;;;;;;;;;;
2023/09/05 05:52:29;;;;;;;7.28;4.53;;;;;;;;;;5051889;28;20033;-76
2023/09/05 05:54:57;;;;;;;13.35;4.93;;;;;;;;;;5012758;28;20068;-75
2023/09/05 05:57:23;;;;;;;7.93;4.90;;;;;;;;;;5021732;28;20067;-73
2023/09/05 06:00:00;;;;;;;10.35;5.22;;;;;;;;;;5037018;28;20028;-75
2023/09/05 06:02:33;;;;;;;11.63;5.03;;;;;;;;;;5027202;28;20120;-75
2023/09/05 06:05:01;;;;;;;11.23;4.82;;;;;;;;;;5031234;28;20036;-73
2023/09/05 06:07:32;;;;;;;11.80;7.22;;;;;;;;;;5048428;28;20028;-71
2023/09/05 06:10:02;;;;;;;13.95;5.47;;;;;;;;;;5046753;28;20029;-73
2023/09/05 06:12:28;;;;;;;13.30;6.07;;;;;;;;;;5026854;28;20033;-71
2023/09/05 06:15:17;;;;;;;12.75;5.85;;;;;;;;;;5030050;28;20044;-73
2023/09/05 06:17:44;;;;;;;8.68;4.88;;;;;;;;;;5030327;28;20377;-75
2023/09/05 06:20:17;;;;;;;8.27;4.80;;;;;;;;;;5051703;28;20036;-76
2023/09/05 06:22:44;;;;;;;7.75;5.20;;;;;;;;;;5038404;28;20071;-74
2023/09/05 06:25:19;;;;;;;8.20;4.88;;;;;;;;;;5030470;28;20076;-75
2023/09/05 06:27:45;;;;;;;9.70;6.30;;;;;;;;;;5016452;28;20485;-75
2023/09/05 06:30:24;;;;;;;10.52;5.50;;;;;;;;;;5012342;28;20710;-77
2023/09/05 06:32:55;;;;;;;10.85;4.97;;;;;;;;;;5048132;28;20036;-75
2023/09/05 06:35:34;;;;;;;16.73;6.30;;;;;;;;;;5038695;28;20029;-77
2023/09/05 06:38:10;;;;;;;10.38;6.32;;;;;;;;;;5050067;28;20029;-75
2023/09/05 06:40:43;;;;;;;9.95;5.57;;;;;;;;;;5049487;28;20451;-75
2023/09/05 06:43:16;;;;;;;8.27;4.80;;;;;;;;;;5014595;28;20274;-76
2023/09/05 06:45:48;;;;;;;10.35;5.20;;;;;;;;;;5050905;28;20303;-76
2023/09/05 06:48:29;;;;;;;10.30;5.05;;;;;;;;;;5017503;28;20131;-75
2023/09/05 06:50:59;;;;;;;12.88;5.78;;;;;;;;;;5029015;28;20033;-79
2023/09/05 06:53:32;;;;;;;8.25;4.97;;;;;;;;;;5047206;28;20026;-76
2023/09/05 06:56:09;;;;;;;5.70;4.20;;;;;;;;;;5053503;28;20105;-76
2023/09/05 06:58:43;;;;;;;14.43;6.05;;;;;;;;;;5037739;28;20025;-76
2023/09/05 07:01:41;;;;;;;8.70;4.30;;;;;;;;;;5013179;28;20033;-76
2023/09/05 07:04:07;;;;;;;8.77;5.10;;;;;;;;;;5018167;28;20061;-76
2023/09/05 07:06:33;;;;;;;7.38;4.32;;;;;;;;;;5024433;28;20149;-76
2023/09/05 07:08:58;;;;;;;7.65;4.22;;;;;;;;;;5041561;28;20476;-76
2023/09/05 07:11:26;;;;;;;11.63;6.05;;;;;;;;;;5020713;28;20025;-78
2023/09/05 07:13:51;;;;;;;17.55;5.85;;;;;;;;;;5035462;28;20025;-75
2023/09/05 07:16:17;;;;;;;9.25;4.80;;;;;;;;;;5041128;28;20021;-77
2023/09/05 07:18:43;;;;;;;10.52;5.32;;;;;;;;;;5039180;28;20048;-76
2023/09/05 07:21:08;;;;;;;7.45;4.72;;;;;;;;;;5022599;28;20115;-76
2023/09/05 07:23:34;;;;;;;9.05;5.45;;;;;;;;;;5022051;28;20033;-76
2023/09/05 07:26:04;;;;;;;8.93;5.53;;;;;;;;;;5019577;28;20033;-76
2023/09/05 07:28:31;;;;;;;7.47;5.22;;;;;;;;;;5023198;28;20025;-75
2023/09/05 07:30:57;;;;;;;6.70;4.45;;;;;;;;;;5020014;28;20060;-77
2023/09/05 07:33:26;;;;;;;9.10;4.80;;;;;;;;;;5025161;28;20700;-78
2023/09/05 07:35:51;;;;;;;12.77;5.47;;;;;;;;;;5043924;28;20025;-75
2023/09/05 07:38:20;;;;;;;11.90;4.88;;;;;;;;;;5040410;28;20044;-75
2023/09/05 07:41:09;;;;;;;14.10;4.60;;;;;;;;;;5038671;28;20032;-74
2023/09/05 07:43:36;;;;;;;6.43;4.50;;;;;;;;;;5043296;28;20033;-75
2023/09/05 07:46:01;;;;;;;11.13;4.70;;;;;;;;;;5021871;28;20903;-75
2023/09/05 07:48:27;;;;;;;7.25;4.07;;;;;;;;;;5035634;28;20091;-75
2023/09/05 07:51:05;;;;;;;10.45;4.40;;;;;;;;;;5037824;28;20033;-76
2023/09/05 07:53:37;;;;;;;9.55;4.80;;;;;;;;;;5007498;28;20048;-76
2023/09/05 07:56:03;;;;;;;6.25;4.43;;;;;;;;;;5018605;28;20073;-75
2023/09/05 07:58:30;;;;;;;7.85;4.35;;;;;;;;;;5003971;28;20390;-76
2023/09/05 08:00:56;;;;;;;11.10;5.30;;;;;;;;;;5033317;28;20338;-76
2023/09/05 08:03:25;;;;;;;13.25;5.07;;;;;;;;;;5021555;28;20029;-74
2023/09/05 08:05:56;;;;;;;8.88;4.80;;;;;;;;;;5035324;28;20037;-75
2023/09/05 08:08:21;;;;;;;12.13;5.78;;;;;;;;;;5018084;28;20033;-75
2023/09/05 08:10:47;;;;;;;7.22;4.32;;;;;;;;;;5027539;28;20548;-75
2023/09/05 08:13:14;;;;;;;10.43;4.55;;;;;;;;;;5031738;28;20120;-74
2023/09/05 08:15:43;;;;;;;8.00;3.95;;;;;;;;;;5030555;28;20032;-75
2023/09/05 08:18:10;;;;;;;8.13;3.88;;;;;;;;;;5011226;28;20110;-76
2023/09/05 08:20:36;;;;;;;8.48;3.53;;;;;;;;;;5024174;28;20033;-75
2023/09/05 08:23:03;;;;;;;8.77;4.63;;;;;;;;;;4997111;28;20029;-75
2023/09/05 08:25:29;;;;;;;10.43;4.75;;;;;;;;;;5025814;28;20118;-77
2023/09/05 08:27:55;;;;;;;6.32;3.78;;;;;;;;;;5021124;28;20032;-76
2023/09/05 08:30:24;;;;;;;8.68;3.92;;;;;;;;;;5008547;28;20036;-76
2023/09/05 08:32:50;;;;;;;5.43;3.25;;;;;;;;;;5007235;28;20040;-75
2023/09/05 08:35:16;;;;;;;5.60;3.72;;;;;;;;;;5021556;28;20037;-75
2023/09/05 08:37:43;;;;;;;10.10;3.88;;;;;;;;;;5038717;28;20025;-74
2023/09/05 08:40:10;;;;;;;6.20;3.72;;;;;;;;;;5034328;28;20029;-74
2023/09/05 08:42:38;;;;;;;5.47;3.33;;;;;;;;;;5034515;28;20044;-75
2023/09/05 08:45:05;;;;;;;5.47;3.20;;;;;;;;;;5011691;28;20057;-75
2023/09/05 08:47:31;;;;;;;11.27;3.53;;;;;;;;;;5044620;28;20527;-74
2023/09/05 08:50:00;;;;;;;8.50;5.13;;;;;;;;;;5027456;28;20039;-76
2023/09/05 08:52:31;;;;;;;11.25;4.13;;;;;;;;;;5039710;28;20541;-75
2023/09/05 08:54:58;;;;;;;8.30;3.72;;;;;;;;;;5049023;28;20043;-75
2023/09/05 08:57:26;;;;;;;5.07;3.33;;;;;;;;;;5027298;28;20132;-75
2023/09/05 08:59:57;;;;;;;12.65;3.92;;;;;;;;;;5014188;28;20064;-74
2023/09/05 09:02:23;;;;;;;6.80;4.65;;;;;;;;;;5005011;28;20071;-75
2023/09/05 09:04:57;;;;;;;5.47;3.50;;;;;;;;;;5019363;28;20026;-76
2023/09/05 09:07:27;;;;;;;8.75;3.78;;;;;;;;;;5001012;28;20045;-74
2023/09/05 09:09:57;;;;;;;6.60;3.50;;;;;;;;;;5019060;28;20131;-75
2023/09/05 09:12:32;;;;;;;22.40;7.05;;;;;;;;;;5018704;28;20036;-75
2023/09/05 09:15:11;;;;;;;4.88;4.07;;;;;;;;;;5019134;28;20079;-77
2023/09/05 09:17:43;;;;;;;13.65;4.13;;;;;;;;;;5014198;28;20040;-75
2023/09/05 09:20:12;;;;;;;;;;;;;;;;;;5015146;28;20064;-74
2023/09/05 09:22:39;;;;;;;6.88;3.85;;;;;;;;;;5042936;28;20246;-75
2023/09/05 09:25:20;;;;;;;4.05;3.00;;;;;;;;;;5009259;28;20048;-78
2023/09/05 09:28:00;;;;;;;5.32;3.35;;;;;;;;;;5042047;28;20032;-76
2023/09/05 09:30:29;;;;;;;8.00;5.05;;;;;;;;;;5031312;28;20580;-75
2023/09/05 09:32:54;;;;;;;10.52;4.30;;;;;;;;;;5036904;28;20123;-80
2023/09/05 09:35:21;;;;;;;3.90;2.95;;;;;;;;;;5021930;28;20427;-78
2023/09/05 09:37:51;;;;;;;5.28;3.60;;;;;;;;;;5037905;28;20032;-78
2023/09/05 09:40:17;;;;;;;5.30;3.58;;;;;;;;;;5015982;28;20025;-76
2023/09/05 09:42:52;;;;;;;9.55;4.38;;;;;;;;;;5044757;28;20021;-78
2023/09/05 09:45:22;;;;;;;7.18;4.05;;;;;;;;;;5040191;28;20429;-76
2023/09/05 09:47:51;;;;;;;9.27;4.10;;;;;;;;;;5021282;28;20037;-77
2023/09/05 09:50:19;;;;;;;7.00;3.60;;;;;;;;;;5036151;28;21123;-75
2023/09/05 09:52:46;;;;;;;3.85;3.20;;;;;;;;;;5035934;28;20051;-76
2023/09/05 09:55:15;;;;;;;6.25;3.17;;;;;;;;;;5020053;28;20087;-75
2023/09/05 09:57:56;;;;;;;5.22;3.15;;;;;;;;;;5019520;28;20037;-75
2023/09/05 10:00:24;;;;;;;9.23;3.47;;;;;;;;;;5039963;28;20021;-76
2023/09/05 10:02:52;;;;;;;7.60;3.80;;;;;;;;;;5038596;28;20159;-80
2023/09/05 10:05:21;;;;;;;9.15;4.95;;;;;;;;;;5023005;28;20870;-76
2023/09/05 10:07:47;;;;;;;7.95;4.07;;;;;;;;;;5019140;28;20029;-77
2023/09/05 10:10:16;;;;;;;4.85;3.67;;;;;;;;;;5034592;28;20358;-76
2023/09/05 10:12:45;;;;;;;8.02;3.20;;;;;;;;;;5020763;28;20033;-76
2023/09/05 10:15:13;;;;;;;8.77;5.97;;;;;;;;;;5040919;28;20508;-77
2023/09/05 10:17:41;;;;;;;6.90;4.13;;;;;;;;;;5031575;28;20095;-78
2023/09/05 10:20:19;;;;;;;8.15;3.78;;;;;;;;;;5019483;28;20156;-75
2023/09/05 10:22:44;;;;;;;6.47;3.60;;;;;;;;;;5021306;28;20039;-76
2023/09/05 10:25:15;;;;;;;3.83;3.22;;;;;;;;;;5021994;28;20025;-76
2023/09/05 10:27:42;;;;;;;8.52;3.38;;;;;;;;;;5024089;28;20199;-77
2023/09/05 10:30:12;;;;;;;8.68;3.45;;;;;;;;;;4998743;28;20533;-76
2023/09/05 10:32:44;;;;;;;9.48;5.30;;;;;;;;;;5023083;28;20399;-77
2023/09/05 10:35:16;;;;;;;6.03;4.47;;;;;;;;;;5019660;28;20136;-77
2023/09/05 10:38:04;;;;;;;4.95;3.22;;;;;;;;;;5039476;28;20101;-75
2023/09/05 10:40:38;;;;;;;5.03;3.60;;;;;;;;;;5037553;28;20029;-74
2023/09/05 10:43:06;;;;;;;6.13;4.10;;;;;;;;;;5037486;28;20747;-75
2023/09/05 10:45:34;;;;;;;8.02;3.22;;;;;;;;;;5042142;28;20028;-76
2023/09/05 10:48:02;;;;;;;8.35;3.95;;;;;;;;;;5043406;28;20029;-75
2023/09/05 10:50:28;;;;;;;6.78;4.43;;;;;;;;;;5013832;28;20055;-76
2023/09/05 10:53:12;;;;;;;7.30;3.58;;;;;;;;;;5019445;28;20113;-77
2023/09/05 10:55:46;;;;;;;9.38;4.00;;;;;;;;;;5014459;28;20168;-77
2023/09/05 10:58:35;;;;;;;7.40;3.28;;;;;;;;;;5043372;28;20025;-77
2023/09/05 11:01:01;;;;;;;6.10;4.40;;;;;;;;;;5036169;28;20049;-79
2023/09/05 11:03:36;;;;;;;7.78;4.57;;;;;;;;;;5002067;28;20138;-74
2023/09/05 11:06:11;;;;;;;8.57;3.83;;;;;;;;;;5014307;28;20030;-77
2023/09/05 11:08:37;;;;;;;6.78;3.80;;;;;;;;;;5032842;28;20063;-76
2023/09/05 11:11:04;;;;;;;5.05;4.15;;;;;;;;;;5016288;28;20033;-76
2023/09/05 11:13:33;;;;;;;11.85;4.05;;;;;;;;;;5021283;28;20043;-76
2023/09/05 11:16:00;;;;;;;4.93;3.40;;;;;;;;;;5034420;28;20112;-79
2023/09/05 11:18:26;;;;;;;6.30;3.53;;;;;;;;;;5014740;28;20040;-75
2023/09/05 11:20:51;;;;;;;5.97;3.60;;;;;;;;;;5032357;28;20021;-76
2023/09/05 11:23:25;;;;;;;7.90;3.47;;;;;;;;;;5022113;28;20534;-76
2023/09/05 11:26:02;;;;;;;5.57;3.85;;;;;;;;;;5037603;28;20025;-76
2023/09/05 11:28:27;;;;;;;11.00;5.10;;;;;;;;;;5022319;28;20117;-75
2023/09/05 11:31:02;;;;;;;16.67;5.13;;;;;;;;;;5016400;28;20112;-74
2023/09/05 11:33:30;;;;;;;5.15;3.60;;;;;;;;;;5002308;28;20111;-75
2023/09/05 11:35:57;;;;;;;34.60;21.98;;;;;;;;;;5007758;28;20033;-75
2023/09/05 11:38:23;;;;;;;5.18;4.68;;;;;;;;;;5013100;28;20409;-74
2023/09/05 11:40:53;;;;;;;7.53;3.42;;;;;;;;;;5015762;28;20033;-76
2023/09/05 11:43:19;;;;;;;5.03;3.38;;;;;;;;;;5033129;28;20026;-77
2023/09/05 11:45:57;;;;;;;5.78;3.60;;;;;;;;;;5026857;28;20063;-74
2023/09/05 11:48:26;;;;;;;5.55;3.60;;;;;;;;;;5017770;28;20032;-76
2023/09/05 11:50:52;;;;;;;5.07;3.28;;;;;;;;;;5022859;28;20028;-74
2023/09/05 11:53:20;;;;;;;5.28;3.25;;;;;;;;;;5034405;28;20033;-75
2023/09/05 11:55:46;;;;;;;3.75;2.92;;;;;;;;;;5011214;28;20053;-76
2023/09/05 11:58:15;;;;;;;7.40;3.83;;;;;;;;;;5019677;28;20044;-76
2023/09/05 12:00:50;;;;;;;7.82;3.20;;;;;;;;;;5013261;28;20638;-75
2023/09/05 12:03:17;;;;;;;4.00;3.58;;;;;;;;;;5018187;28;20091;-75
2023/09/05 12:05:48;;;;;;;5.22;3.60;;;;;;;;;;5015467;28;20039;-76
2023/09/05 12:08:18;;;;;;;8.95;3.92;;;;;;;;;;5019939;28;20170;-76
2023/09/05 12:10:51;;;;;;;4.22;3.83;;;;;;;;;;5019534;28;20037;-76
2023/09/05 12:13:34;;;;;;;5.22;4.40;;;;;;;;;;5016598;28;20041;-77
2023/09/05 12:16:00;;;;;;;8.20;4.72;;;;;;;;;;5039270;28;20050;-77
2023/09/05 12:18:25;;;;;;;7.85;3.47;;;;;;;;;;5031802;28;20029;-74
2023/09/05 12:21:00;;;;;;;6.82;3.75;;;;;;;;;;5018308;28;20041;-74
2023/09/05 12:23:29;;;;;;;3.88;3.30;;;;;;;;;;5027740;28;20025;-75
2023/09/05 12:25:55;;;;;;;4.50;4.03;;;;;;;;;;5008180;28;20030;-77
2023/09/05 12:28:22;;;;;;;5.63;3.33;;;;;;;;;;5020047;28;20052;-75
2023/09/05 12:31:05;;;;;;;6.60;3.50;;;;;;;;;;5019624;28;20037;-77
2023/09/05 12:33:31;;;;;;;10.27;7.63;;;;;;;;;;5012015;28;20029;-76
2023/09/05 12:35:56;;;;;;;5.60;3.80;;;;;;;;;;5020713;28;20025;-76
2023/09/05 12:38:22;;;;;;;6.80;3.50;;;;;;;;;;5036221;28;20064;-76
2023/09/05 12:40:47;;;;;;;7.07;3.58;;;;;;;;;;5038395;28;20035;-76
2023/09/05 12:43:14;;;;;;;4.53;3.90;;;;;;;;;;5041077;28;20032;-78
2023/09/05 12:45:42;;;;;;;3.75;3.00;;;;;;;;;;5036320;28;20033;-75
2023/09/05 12:48:09;;;;;;;5.45;3.38;;;;;;;;;;5019264;28;20033;-78
2023/09/05 12:50:36;;;;;;;5.43;3.50;;;;;;;;;;5030852;28;20040;-77
2023/09/05 12:53:09;;;;;;;4.57;3.53;;;;;;;;;;5022322;28;20165;-76
2023/09/05 12:55:36;;;;;;;4.85;3.85;;;;;;;;;;5032088;28;20132;-76
2023/09/05 12:58:04;;;;;;;4.78;3.33;;;;;;;;;;5023490;28;20029;-76
2023/09/05 13:00:34;;;;;;;5.03;3.28;;;;;;;;;;5022987;28;20523;-77
2023/09/05 13:03:02;;;;;;;4.90;3.83;;;;;;;;;;5044446;28;20056;-75
2023/09/05 13:05:30;;;;;;;5.07;3.60;;;;;;;;;;5037590;28;20037;-75
2023/09/05 13:07:56;;;;;;;4.72;3.53;;;;;;;;;;5034913;28;20025;-76
2023/09/05 13:10:22;;;;;;;6.35;3.83;;;;;;;;;;5015512;28;20035;-77
2023/09/05 13:12:49;;;;;;;4.43;3.33;;;;;;;;;;5006151;28;20034;-76
2023/09/05 13:15:15;;;;;;;9.25;4.28;;;;;;;;;;5032298;28;20060;-76
2023/09/05 13:17:44;;;;;;;9.82;7.28;;;;;;;;;;5017382;28;20401;-76
2023/09/05 13:20:14;;;;;;;5.00;3.47;;;;;;;;;;5025468;28;20129;-76
2023/09/05 13:22:44;;;;;;;4.82;3.60;;;;;;;;;;5039353;28;20027;-75
2023/09/05 13:25:09;;;;;;;8.20;3.33;;;;;;;;;;5046903;28;20033;-76
2023/09/05 13:27:35;;;;;;;7.35;3.72;;;;;;;;;;5030487;28;20040;-77
2023/09/05 13:30:04;;;;;;;7.05;4.93;;;;;;;;;;5030842;28;20037;-76
2023/09/05 13:32:30;;;;;;;5.35;3.67;;;;;;;;;;5008187;28;20040;-75
2023/09/05 13:34:55;;;;;;;4.47;4.05;;;;;;;;;;5041776;28;20029;-76
2023/09/05 13:37:22;;;;;;;5.55;3.78;;;;;;;;;;5042636;28;20087;-74
2023/09/05 13:39:48;;;;;;;7.13;3.70;;;;;;;;;;5013936;28;20089;-77
2023/09/05 13:42:15;;;;;;;5.82;3.85;;;;;;;;;;5017193;28;20124;-75
2023/09/05 13:44:41;;;;;;;7.05;4.50;;;;;;;;;;5048178;28;20457;-76
2023/09/05 13:47:07;;;;;;;8.68;3.92;;;;;;;;;;5047657;28;20108;-76
2023/09/05 13:49:35;;;;;;;4.50;3.13;;;;;;;;;;5021281;28;20025;-78
2023/09/05 13:52:01;;;;;;;3.88;3.15;;;;;;;;;;5047152;28;20116;-78
2023/09/05 13:54:27;;;;;;;8.25;3.00;;;;;;;;;;5030481;28;20032;-77
2023/09/05 13:56:53;;;;;;;9.80;5.65;;;;;;;;;;5046187;28;20048;-78
2023/09/05 13:59:19;;;;;;;6.65;5.00;;;;;;;;;;5046725;28;20585;-76
2023/09/05 14:01:45;;;;;;;8.63;3.28;;;;;;;;;;5029037;28;20029;-77
2023/09/05 14:04:12;;;;;;;4.25;3.30;;;;;;;;;;5023517;28;20045;-78
2023/09/05 14:06:40;;;;;;;3.63;3.15;;;;;;;;;;5000395;28;20036;-77
2023/09/05 14:09:06;;;;;;;12.55;6.47;;;;;;;;;;5024777;28;20032;-75
2023/09/05 14:11:31;;;;;;;8.45;4.50;;;;;;;;;;5038788;28;20098;-78
2023/09/05 14:13:57;;;;;;;5.32;3.10;;;;;;;;;;5026491;28;20037;-79
2023/09/05 14:16:23;;;;;;;6.50;3.47;;;;;;;;;;5026995;28;20361;-78
2023/09/05 14:18:49;;;;;;;7.47;3.53;;;;;;;;;;5030335;28;20032;-74
2023/09/05 14:21:15;;;;;;;6.13;3.60;;;;;;;;;;5039356;28;20017;-76
2023/09/05 14:23:41;;;;;;;4.40;2.90;;;;;;;;;;5025745;28;20022;-75
2023/09/05 14:26:08;;;;;;;11.35;2.92;;;;;;;;;;5022806;28;20112;-75
2023/09/05 14:28:33;;;;;;;7.47;3.75;;;;;;;;;;5025354;28;20071;-77
2023/09/05 14:30:59;;;;;;;7.35;4.43;;;;;;;;;;5003118;28;20041;-77
2023/09/05 14:33:24;;;;;;;2.90;2.50;;;;;;;;;;5041307;28;20480;-77
2023/09/05 14:35:52;;;;;;;6.63;2.33;;;;;;;;;;5023494;28;20142;-80
2023/09/05 14:38:17;;;;;;;5.15;2.72;;;;;;;;;;5032375;28;20453;-78
2023/09/05 14:40:43;;;;;;;5.30;2.70;;;;;;;;;;5023093;28;20073;-77
2023/09/05 14:43:09;;;;;;;7.13;2.42;;;;;;;;;;5047841;28;20063;-78
2023/09/05 14:45:34;;;;;;;3.65;2.30;;;;;;;;;;5024702;28;20102;-78
2023/09/05 14:48:02;;;;;;;8.30;3.90;;;;;;;;;;5040328;28;20028;-77
2023/09/05 14:50:28;;;;;;;3.22;2.53;;;;;;;;;;5012974;28;20021;-77
2023/09/05 14:52:56;;;;;;;8.63;5.75;;;;;;;;;;5024282;28;20071;-77
2023/09/05 14:55:24;;;;;;;8.82;4.13;;;;;;;;;;5050213;28;20121;-76
2023/09/05 14:57:50;;;;;;;4.20;2.40;;;;;;;;;;5028544;28;20025;-78
2023/09/05 15:00:16;;;;;;;3.85;2.85;;;;;;;;;;5047283;28;20137;-77